createdAt,value
2018-10-16T00:00:21.411Z,7.50
2018-10-16T00:02:50.308Z,7.33
2018-10-16T00:05:18.851Z,8.00
2018-10-16T00:07:47.122Z,11.00
2018-10-16T00:10:19.570Z,8.20
2018-10-16T00:12:47.841Z,8.53
2018-10-16T00:15:16.424Z,9.80
2018-10-16T00:17:44.603Z,7.93
2018-10-16T00:20:12.810Z,10.68
2018-10-16T00:22:41.185Z,9.63
2018-10-16T00:25:13.680Z,8.73
2018-10-16T00:27:41.981Z,8.77
2018-10-16T00:30:10.461Z,8.13
2018-10-16T00:32:39.239Z,7.20
2018-10-16T00:35:07.637Z,8.87
2018-10-16T00:37:36.345Z,8.50
2018-10-16T00:40:04.723Z,7.60
2018-10-16T00:42:32.871Z,8.43
2018-10-16T00:45:00.996Z,8.47
2018-10-16T00:47:29.332Z,8.17
2018-10-16T00:49:57.764Z,6.97
2018-10-16T00:52:26.396Z,7.67
2018-10-16T00:54:54.762Z,7.87
2018-10-16T00:57:22.822Z,7.00
2018-10-16T00:59:51.315Z,8.47
2018-10-16T01:02:19.705Z,9.50
2018-10-16T01:04:48.246Z,8.10
2018-10-16T01:07:16.512Z,7.80
2018-10-16T01:09:44.860Z,9.58
2018-10-16T01:12:13.118Z,8.13
2018-10-16T01:14:41.559Z,7.23
2018-10-16T01:17:09.980Z,6.80
2018-10-16T01:19:38.538Z,6.70
2018-10-16T01:22:06.758Z,8.27
2018-10-16T01:24:34.852Z,8.43
2018-10-16T01:27:03.039Z,7.37
2018-10-16T01:29:31.747Z,8.73
2018-10-16T01:31:59.947Z,7.30
2018-10-16T01:34:28.366Z,6.47
2018-10-16T01:36:56.499Z,6.13
2018-10-16T01:39:24.802Z,6.07
2018-10-16T01:41:53.122Z,5.40
2018-10-16T01:44:21.403Z,5.40
2018-10-16T01:46:49.765Z,6.33
2018-10-16T01:49:18.171Z,6.80
2018-10-16T01:51:46.363Z,6.23
2018-10-16T01:54:14.790Z,6.13
2018-10-16T01:56:42.887Z,11.50
2018-10-16T01:59:11.292Z,6.83
2018-10-16T02:01:39.545Z,7.07
2018-10-16T02:04:08.006Z,5.70
2018-10-16T02:06:36.409Z,6.07
2018-10-16T02:09:07.348Z,8.43
2018-10-16T02:11:35.655Z,8.87
2018-10-16T02:14:04.073Z,6.00
2018-10-16T02:16:32.425Z,7.90
2018-10-16T02:19:00.602Z,6.43
2018-10-16T02:21:28.888Z,7.80
2018-10-16T02:23:57.633Z,10.00
2018-10-16T02:26:26.000Z,6.53
2018-10-16T02:28:54.280Z,6.07
2018-10-16T02:31:23.122Z,5.97
2018-10-16T02:33:51.509Z,9.83
2018-10-16T02:36:19.613Z,8.70
2018-10-16T02:38:47.992Z,9.70
2018-10-16T02:41:16.399Z,5.37
2018-10-16T02:43:44.794Z,9.00
2018-10-16T02:46:13.128Z,6.28
2018-10-16T02:48:41.270Z,6.47
2018-10-16T02:51:09.392Z,6.30
2018-10-16T02:53:37.709Z,8.13
2018-10-16T02:56:06.001Z,7.40
2018-10-16T02:58:34.119Z,11.97
2018-10-16T03:01:02.247Z,7.40
2018-10-16T03:03:34.653Z,7.23
2018-10-16T03:06:03.054Z,5.83
2018-10-16T03:08:31.421Z,9.90
2018-10-16T03:10:59.866Z,11.30
2018-10-16T03:13:27.985Z,6.20
2018-10-16T03:15:56.131Z,6.30
2018-10-16T03:18:24.589Z,9.40
2018-10-16T03:20:53.165Z,6.30
2018-10-16T03:23:21.596Z,7.07
2018-10-16T03:25:50.161Z,6.60
2018-10-16T03:28:18.846Z,7.33
2018-10-16T03:30:47.131Z,6.33
2018-10-16T03:33:15.244Z,7.60
2018-10-16T03:35:43.351Z,8.17
2018-10-16T03:38:11.535Z,8.43
2018-10-16T03:40:39.608Z,7.23
2018-10-16T03:43:08.217Z,8.80
2018-10-16T03:45:36.899Z,7.17
2018-10-16T03:48:06.869Z,8.40
2018-10-16T03:50:35.280Z,8.07
2018-10-16T03:53:03.665Z,7.67
2018-10-16T03:55:31.847Z,6.17
2018-10-16T03:57:59.923Z,5.80
2018-10-16T04:00:28.119Z,5.20
2018-10-16T04:02:56.255Z,5.13
2018-10-16T04:05:24.863Z,6.50
2018-10-16T04:07:53.363Z,6.00
2018-10-16T04:10:21.650Z,7.67
2018-10-16T04:12:49.995Z,9.00
2018-10-16T04:15:18.357Z,9.60
2018-10-16T04:17:46.430Z,6.87
2018-10-16T04:20:14.630Z,5.30
2018-10-16T04:22:42.702Z,5.50
2018-10-16T04:25:10.782Z,5.33
2018-10-16T04:27:39.132Z,7.27
2018-10-16T04:30:07.519Z,5.70
2018-10-16T04:32:35.662Z,5.23
2018-10-16T04:35:09.489Z,6.40
2018-10-16T04:37:37.564Z,5.27
2018-10-16T04:40:06.756Z,6.30
2018-10-16T04:42:34.843Z,5.63
2018-10-16T04:45:03.223Z,5.80
2018-10-16T04:47:31.685Z,18.97
2018-10-16T04:49:59.930Z,9.03
2018-10-16T04:52:28.918Z,6.10
2018-10-16T04:54:57.040Z,6.97
2018-10-16T04:57:25.139Z,7.23
2018-10-16T04:59:53.357Z,6.33
2018-10-16T05:02:21.585Z,7.20
2018-10-16T05:04:49.897Z,9.33
2018-10-16T05:07:18.196Z,10.07
2018-10-16T05:09:46.369Z,7.03
2018-10-16T05:12:14.746Z,8.30
2018-10-16T05:14:42.899Z,7.47
2018-10-16T05:17:11.043Z,5.77
2018-10-16T05:19:39.934Z,12.17
2018-10-16T05:22:08.094Z,6.93
2018-10-16T05:24:36.415Z,6.95
2018-10-16T05:27:04.762Z,6.87
2018-10-16T05:29:33.011Z,9.35
2018-10-16T05:32:01.681Z,10.63
2018-10-16T05:34:30.032Z,8.70
2018-10-16T05:36:58.515Z,11.00
2018-10-16T05:39:26.709Z,8.47
2018-10-16T05:41:55.237Z,10.97
2018-10-16T05:44:23.568Z,8.97
2018-10-16T05:46:52.084Z,15.73
2018-10-16T05:49:20.320Z,11.07
2018-10-16T05:51:48.614Z,13.97
2018-10-16T05:54:17.152Z,21.53
2018-10-16T05:56:45.416Z,21.00
2018-10-16T05:59:13.615Z,21.27
2018-10-16T06:01:42.152Z,20.63
2018-10-16T06:04:10.635Z,22.90
2018-10-16T06:06:39.016Z,21.73
2018-10-16T06:09:07.579Z,20.83
2018-10-16T06:11:35.835Z,26.83
2018-10-16T06:14:03.942Z,18.40
2018-10-16T06:16:32.128Z,19.93
2018-10-16T06:25:46.930Z,21.63
2018-10-16T06:28:18.583Z,24.07
2018-10-16T06:30:46.789Z,24.10
2018-10-16T06:33:16.523Z,24.90
2018-10-16T06:35:44.618Z,20.20
2018-10-16T06:38:12.724Z,24.63
2018-10-16T06:40:40.887Z,28.83
2018-10-16T06:43:08.989Z,25.27
2018-10-16T06:45:37.196Z,27.57
2018-10-16T06:48:05.886Z,29.10
2018-10-16T06:50:33.886Z,22.60
2018-10-16T06:53:03.035Z,29.03
2018-10-16T06:55:31.168Z,27.70
2018-10-16T06:57:59.331Z,24.10
2018-10-16T07:00:27.605Z,27.30
2018-10-16T07:02:55.771Z,31.87
2018-10-16T07:05:24.151Z,24.03
2018-10-16T07:07:52.263Z,27.93
2018-10-16T07:10:20.535Z,27.23
2018-10-16T07:12:48.684Z,26.03
2018-10-16T07:15:16.928Z,26.90
2018-10-16T07:17:45.139Z,25.30
2018-10-16T07:20:13.631Z,32.80
2018-10-16T07:22:41.776Z,30.30
2018-10-16T07:25:10.366Z,30.33
2018-10-16T07:27:38.532Z,35.20
2018-10-16T07:30:09.212Z,28.20
2018-10-16T07:32:37.305Z,26.20
2018-10-16T07:35:06.847Z,29.93
2018-10-16T07:37:35.223Z,28.83
2018-10-16T07:40:03.751Z,30.03
2018-10-16T07:42:31.895Z,34.47
2018-10-16T07:45:00.032Z,26.63
2018-10-16T07:47:28.147Z,26.77
2018-10-16T07:49:56.383Z,29.23
2018-10-16T07:52:24.469Z,35.27
2018-10-16T07:54:52.619Z,32.70
2018-10-16T07:57:20.897Z,29.63
2018-10-16T07:59:48.959Z,26.80
2018-10-16T08:02:17.115Z,30.20
2018-10-16T08:04:45.204Z,24.67
2018-10-16T08:07:13.318Z,31.00
2018-10-16T08:09:41.444Z,30.67
2018-10-16T08:12:10.066Z,25.93
2018-10-16T08:14:38.642Z,26.53
2018-10-16T08:17:07.065Z,26.67
2018-10-16T08:19:35.339Z,29.60
2018-10-16T08:22:03.496Z,31.67
2018-10-16T08:24:31.593Z,27.50
2018-10-16T08:26:59.739Z,33.75
2018-10-16T08:29:27.743Z,28.30
2018-10-16T08:31:55.847Z,29.43
2018-10-16T08:34:23.955Z,27.27
2018-10-16T08:36:52.136Z,23.93
2018-10-16T08:39:27.637Z,26.23
2018-10-16T08:44:18.218Z,23.03
2018-10-16T08:46:57.998Z,24.80
2018-10-16T08:49:38.471Z,21.73
2018-10-16T08:52:06.683Z,26.83
2018-10-16T08:54:34.791Z,25.00
2018-10-16T08:57:02.967Z,28.63
2018-10-16T08:59:31.107Z,27.27
2018-10-16T09:01:59.239Z,25.83
2018-10-16T09:04:27.330Z,26.40
2018-10-16T09:06:55.487Z,27.90
2018-10-16T09:09:23.501Z,23.50
2018-10-16T09:11:51.651Z,25.73
2018-10-16T09:14:19.807Z,22.83
2018-10-16T09:16:47.915Z,22.60
2018-10-16T09:19:16.039Z,23.63
2018-10-16T09:21:44.152Z,21.80
2018-10-16T09:24:12.241Z,19.80
2018-10-16T09:26:40.352Z,21.25
2018-10-16T09:29:08.501Z,23.10
2018-10-16T09:31:36.623Z,27.25
2018-10-16T09:34:04.719Z,23.47
2018-10-16T09:36:32.830Z,22.73
2018-10-16T09:39:00.970Z,19.13
2018-10-16T09:41:29.084Z,23.43
2018-10-16T09:43:57.191Z,22.77
2018-10-16T09:46:25.343Z,20.77
2018-10-16T09:48:53.446Z,19.80
2018-10-16T09:51:21.534Z,19.12
2018-10-16T09:53:50.348Z,16.82
2018-10-16T09:56:18.427Z,16.50
2018-10-16T09:58:46.584Z,18.37
2018-10-16T10:01:20.201Z,15.10
2018-10-16T10:03:48.302Z,15.63
2018-10-16T10:06:16.435Z,12.73
2018-10-16T10:08:44.534Z,13.03
2018-10-16T10:11:12.713Z,15.95
2018-10-16T10:13:40.787Z,15.60
2018-10-16T10:16:08.938Z,14.38
2018-10-16T10:18:37.271Z,15.80
2018-10-16T10:21:05.392Z,12.05
2018-10-16T10:23:33.507Z,17.07
2018-10-16T10:26:01.663Z,13.48
2018-10-16T10:28:29.767Z,15.00
2018-10-16T10:30:57.863Z,15.18
2018-10-16T10:33:26.104Z,12.03
2018-10-16T10:35:54.193Z,15.13
2018-10-16T10:38:22.352Z,12.53
2018-10-16T10:40:50.455Z,15.78
2018-10-16T10:43:18.560Z,14.38
2018-10-16T10:45:46.928Z,12.55
2018-10-16T10:48:15.027Z,16.77
2018-10-16T10:50:43.432Z,19.57
2018-10-16T10:53:11.237Z,15.25
2018-10-16T10:55:39.374Z,15.50
2018-10-16T10:58:07.675Z,17.05
2018-10-16T11:00:35.832Z,16.90
2018-10-16T11:03:04.371Z,16.67
2018-10-16T11:05:32.358Z,17.70
2018-10-16T11:08:00.521Z,15.03
2018-10-16T11:10:28.695Z,18.12
2018-10-16T11:12:56.810Z,19.35
2018-10-16T11:15:24.915Z,21.70
2018-10-16T11:17:53.124Z,19.17
2018-10-16T11:22:55.858Z,21.07
2018-10-16T11:25:23.952Z,17.10
2018-10-16T11:27:52.438Z,18.50
2018-10-16T11:30:20.705Z,16.48
2018-10-16T11:32:48.719Z,18.75
2018-10-16T11:35:16.823Z,20.48
2018-10-16T11:37:44.925Z,20.88
2018-10-16T11:40:13.214Z,17.70
2018-10-16T11:42:42.031Z,16.95
2018-10-16T11:45:17.972Z,16.67
2018-10-16T11:47:46.925Z,17.55
2018-10-16T11:50:15.289Z,14.47
2018-10-16T11:52:43.451Z,13.30
2018-10-16T11:55:11.591Z,16.30
2018-10-16T11:57:39.691Z,18.30
2018-10-16T12:00:12.028Z,18.95
2018-10-16T12:02:40.214Z,14.80
2018-10-16T12:05:08.297Z,14.23
2018-10-16T12:07:36.378Z,20.50
2018-10-16T12:10:04.923Z,15.45
2018-10-16T12:12:33.043Z,17.65
2018-10-16T12:15:01.180Z,15.98
2018-10-16T12:18:06.026Z,19.70
2018-10-16T12:20:38.308Z,19.60
2018-10-16T12:23:06.408Z,15.83
2018-10-16T12:25:34.518Z,15.40
2018-10-16T12:28:02.635Z,18.77
2018-10-16T12:30:30.711Z,16.93
2018-10-16T12:32:58.827Z,15.32
2018-10-16T12:35:26.942Z,16.50
2018-10-16T12:37:55.043Z,14.83
2018-10-16T12:40:23.204Z,17.80
2018-10-16T12:42:51.377Z,18.27
2018-10-16T12:45:19.514Z,18.05
2018-10-16T12:47:49.509Z,16.32
2018-10-16T12:50:17.638Z,15.78
2018-10-16T12:52:47.425Z,17.27
2018-10-16T12:55:16.361Z,15.80
2018-10-16T12:57:44.599Z,12.78
2018-10-16T13:00:12.755Z,18.42
2018-10-16T13:02:40.800Z,18.27
2018-10-16T13:05:08.952Z,10.63
2018-10-16T13:07:38.089Z,11.08
2018-10-16T13:10:08.984Z,13.55
2018-10-16T13:12:37.080Z,10.93
2018-10-16T13:15:06.548Z,12.93
2018-10-16T13:17:34.648Z,15.18
2018-10-16T13:20:10.463Z,9.60
2018-10-16T13:22:39.205Z,9.68
2018-10-16T13:25:08.526Z,10.30
2018-10-16T13:27:36.779Z,9.23
2018-10-16T13:30:05.575Z,10.13
2018-10-16T13:32:33.603Z,16.65
2018-10-16T13:35:01.764Z,6.78
2018-10-16T13:37:29.848Z,8.05
2018-10-16T13:39:58.102Z,8.08
2018-10-16T13:42:26.200Z,7.97
2018-10-16T13:44:54.288Z,9.80
2018-10-16T13:47:22.400Z,9.23
2018-10-16T13:49:50.531Z,10.78
2018-10-16T13:52:18.704Z,8.30
2018-10-16T13:54:46.811Z,10.10
2018-10-16T13:57:14.927Z,10.85
2018-10-16T13:59:43.033Z,7.47
2018-10-16T14:02:11.215Z,9.28
2018-10-16T14:04:39.279Z,8.78
2018-10-16T14:07:07.367Z,7.72
2018-10-16T14:09:35.539Z,12.85
2018-10-16T14:12:03.701Z,12.90
2018-10-16T14:14:31.815Z,7.58
2018-10-16T14:16:59.961Z,8.78
2018-10-16T14:19:28.030Z,7.30
2018-10-16T14:21:56.220Z,13.90
2018-10-16T14:24:24.265Z,7.53
2018-10-16T14:26:52.350Z,9.90
2018-10-16T14:29:20.440Z,8.35
2018-10-16T14:31:48.586Z,8.85
2018-10-16T14:34:16.719Z,7.72
2018-10-16T14:36:44.745Z,11.80
2018-10-16T14:39:12.988Z,11.33
2018-10-16T14:41:41.106Z,9.53
2018-10-16T14:44:09.748Z,10.78
2018-10-16T14:46:37.731Z,6.72
2018-10-16T14:49:05.826Z,9.40
2018-10-16T14:51:34.907Z,11.22
2018-10-16T14:54:03.226Z,7.03
2018-10-16T14:56:32.176Z,10.78
2018-10-16T14:59:00.298Z,7.83
2018-10-16T15:01:28.641Z,8.93
2018-10-16T15:03:56.767Z,8.65
2018-10-16T15:06:24.911Z,6.65
2018-10-16T15:08:53.049Z,8.28
2018-10-16T15:11:21.189Z,6.97
2018-10-16T15:13:49.317Z,6.95
2018-10-16T15:16:17.488Z,8.23
2018-10-16T15:18:45.463Z,8.30
2018-10-16T15:21:13.531Z,9.20
2018-10-16T15:23:41.645Z,12.23
2018-10-16T15:26:09.749Z,9.93
2018-10-16T15:28:37.919Z,12.80
2018-10-16T15:31:06.081Z,11.48
2018-10-16T15:33:34.159Z,16.02
2018-10-16T15:36:02.345Z,13.53
2018-10-16T15:38:30.423Z,9.25
2018-10-16T15:40:58.527Z,13.30
2018-10-16T15:43:26.642Z,9.18
2018-10-16T15:45:54.780Z,10.75
2018-10-16T15:48:22.801Z,12.80
2018-10-16T15:50:50.928Z,11.38
2018-10-16T15:53:19.016Z,15.38
2018-10-16T15:55:47.149Z,12.05
2018-10-16T15:58:15.292Z,8.50
2018-10-16T16:00:43.339Z,11.33
2018-10-16T16:03:11.439Z,8.30
2018-10-16T16:05:39.800Z,11.80
2018-10-16T16:08:07.933Z,17.10
2018-10-16T16:10:35.968Z,8.08
2018-10-16T16:13:07.430Z,12.07
2018-10-16T16:15:35.663Z,8.33
2018-10-16T16:18:03.860Z,9.35
2018-10-16T16:20:31.837Z,9.90
2018-10-16T16:23:00.074Z,14.10
2018-10-16T16:25:28.215Z,11.80
2018-10-16T16:27:56.357Z,11.85
2018-10-16T16:30:24.407Z,12.98
2018-10-16T16:32:52.512Z,11.40
2018-10-16T16:35:20.596Z,9.33
2018-10-16T16:37:48.751Z,10.80
2018-10-16T16:40:16.839Z,10.75
2018-10-16T16:42:44.940Z,14.07
2018-10-16T16:45:13.196Z,18.50
2018-10-16T16:47:41.311Z,12.65
2018-10-16T16:50:10.710Z,10.10
2018-10-16T16:52:39.000Z,13.45
2018-10-16T16:55:08.407Z,15.80
2018-10-16T16:57:36.619Z,17.67
2018-10-16T17:00:04.715Z,11.10
2018-10-16T17:02:32.869Z,14.10
2018-10-16T17:05:01.064Z,13.22
2018-10-16T17:07:29.220Z,13.70
2018-10-16T17:09:57.421Z,12.35
2018-10-16T17:12:25.663Z,12.23
2018-10-16T17:14:53.787Z,13.30
2018-10-16T17:17:21.911Z,11.90
2018-10-16T17:19:50.047Z,13.32
2018-10-16T17:22:18.179Z,16.23
2018-10-16T17:24:46.523Z,21.55
2018-10-16T17:27:14.521Z,14.98
2018-10-16T17:29:43.011Z,12.40
2018-10-16T17:32:11.502Z,13.30
2018-10-16T17:34:39.601Z,15.23
2018-10-16T17:37:07.737Z,15.75
2018-10-16T17:39:35.867Z,14.03
2018-10-16T17:42:04.027Z,16.05
2018-10-16T17:44:32.148Z,15.23
2018-10-16T17:47:00.266Z,16.75
2018-10-16T17:49:28.380Z,16.87
2018-10-16T17:58:42.955Z,13.60
2018-10-16T18:01:12.325Z,15.25
2018-10-16T18:03:41.088Z,21.00
2018-10-16T18:06:09.195Z,17.20
2018-10-16T18:08:37.380Z,20.37
2018-10-16T18:11:05.579Z,12.70
2018-10-16T18:13:33.720Z,12.50
2018-10-16T18:16:01.894Z,13.03
2018-10-16T18:18:29.979Z,12.33
2018-10-16T18:20:58.091Z,16.57
2018-10-16T18:23:26.235Z,14.67
2018-10-16T18:25:54.403Z,12.30
2018-10-16T18:28:22.535Z,17.80
2018-10-16T18:30:50.620Z,13.70
2018-10-16T18:33:18.724Z,12.53
2018-10-16T18:35:46.819Z,19.30
2018-10-16T18:38:14.933Z,18.55
2018-10-16T18:40:43.031Z,19.10
2018-10-16T18:43:11.128Z,27.13
2018-10-16T18:45:39.221Z,18.50
2018-10-16T18:48:07.352Z,16.57
2018-10-16T18:50:35.450Z,16.10
2018-10-16T18:53:03.558Z,15.07
2018-10-16T18:55:31.671Z,17.93
2018-10-16T18:57:59.771Z,12.50
2018-10-16T19:00:27.878Z,13.57
2018-10-16T19:02:55.991Z,9.43
2018-10-16T19:05:24.050Z,10.57
2018-10-16T19:07:52.175Z,17.63
2018-10-16T19:10:20.276Z,10.53
2018-10-16T19:12:48.406Z,10.40
2018-10-16T19:15:17.343Z,12.73
2018-10-16T19:17:45.961Z,17.47
2018-10-16T19:20:15.158Z,10.47
2018-10-16T19:22:44.053Z,17.55
2018-10-16T19:25:13.343Z,12.93
2018-10-16T19:27:41.506Z,10.47
2018-10-16T19:30:10.735Z,9.83
2018-10-16T19:32:38.975Z,13.40
2018-10-16T19:35:07.697Z,9.23
2018-10-16T19:37:35.853Z,12.77
2018-10-16T19:40:03.899Z,13.80
2018-10-16T19:42:32.116Z,11.13
2018-10-16T19:45:00.260Z,13.90
2018-10-16T19:47:28.399Z,13.83
2018-10-16T19:49:56.524Z,10.23
2018-10-16T19:52:24.621Z,10.50
2018-10-16T19:54:52.718Z,12.63
2018-10-16T19:57:20.849Z,12.73
2018-10-16T19:59:49.215Z,11.23
2018-10-16T20:02:17.331Z,11.00
2018-10-16T20:04:45.436Z,11.80
2018-10-16T20:07:13.533Z,7.27
2018-10-16T20:09:41.724Z,9.37
2018-10-16T20:12:09.790Z,7.17
2018-10-16T20:14:37.875Z,7.80
2018-10-16T20:17:05.995Z,11.60
2018-10-16T20:19:34.159Z,7.73
2018-10-16T20:22:02.347Z,7.30
2018-10-16T20:24:30.426Z,7.20
2018-10-16T20:26:58.519Z,7.27
2018-10-16T20:29:27.291Z,10.93
2018-10-16T20:31:55.387Z,7.97
2018-10-16T20:34:23.470Z,8.00
2018-10-16T20:36:51.549Z,10.10
2018-10-16T20:39:19.775Z,10.47
2018-10-16T20:41:47.960Z,7.63
2018-10-16T20:44:16.122Z,9.27
2018-10-16T20:46:44.215Z,11.22
2018-10-16T20:49:12.371Z,9.30
2018-10-16T20:51:40.414Z,11.63
2018-10-16T20:54:08.530Z,13.23
2018-10-16T20:56:36.636Z,8.80
2018-10-16T20:59:05.129Z,10.97
2018-10-16T21:01:33.227Z,9.10
2018-10-16T21:04:01.380Z,10.00
2018-10-16T21:06:29.639Z,15.67
2018-10-16T21:08:57.591Z,8.90
2018-10-16T21:11:25.858Z,10.67
2018-10-16T21:13:54.002Z,9.63
2018-10-16T21:16:22.087Z,10.90
2018-10-16T21:18:50.175Z,12.00
2018-10-16T21:21:18.254Z,11.67
2018-10-16T21:23:46.390Z,10.40
2018-10-16T21:26:14.463Z,11.90
2018-10-16T21:28:42.565Z,12.35
2018-10-16T21:31:10.758Z,12.83
2018-10-16T21:33:38.773Z,9.43
2018-10-16T21:36:06.858Z,9.70
2018-10-16T21:38:37.262Z,11.50
2018-10-16T21:41:05.474Z,16.23
2018-10-16T21:43:33.575Z,9.37
2018-10-16T21:46:01.764Z,8.63
2018-10-16T21:48:29.965Z,9.93
2018-10-16T21:50:58.118Z,8.53
2018-10-16T21:53:26.310Z,8.37
2018-10-16T21:55:54.386Z,9.00
2018-10-16T21:58:22.458Z,8.93
2018-10-16T22:00:56.020Z,9.57
2018-10-16T22:03:24.106Z,12.07
2018-10-16T22:05:52.296Z,10.30
2018-10-16T22:08:20.706Z,9.73
2018-10-16T22:10:48.861Z,11.27
2018-10-16T22:13:16.950Z,9.70
2018-10-16T22:15:45.052Z,10.03
2018-10-16T22:18:13.182Z,9.00
2018-10-16T22:20:41.325Z,10.50
2018-10-16T22:23:09.520Z,12.63
2018-10-16T22:25:37.510Z,10.87
2018-10-16T22:28:05.617Z,11.43
2018-10-16T22:30:33.822Z,11.63
2018-10-16T22:33:01.930Z,13.07
2018-10-16T22:35:30.061Z,12.97
2018-10-16T22:37:58.152Z,10.87
2018-10-16T22:40:26.259Z,13.43
2018-10-16T22:42:54.419Z,11.87
2018-10-16T22:45:22.526Z,12.67
2018-10-16T22:47:50.626Z,15.57
2018-10-16T22:50:18.794Z,14.00
2018-10-16T22:52:46.902Z,11.67
2018-10-16T22:55:15.044Z,11.37
2018-10-16T22:57:43.102Z,16.05
2018-10-16T23:00:17.050Z,17.60
2018-10-16T23:02:46.174Z,12.80
2018-10-16T23:05:14.397Z,16.57
2018-10-16T23:07:43.256Z,16.33
2018-10-16T23:10:11.533Z,17.07
2018-10-16T23:12:39.634Z,16.47
2018-10-16T23:15:08.689Z,21.43
2018-10-16T23:17:36.793Z,18.57
2018-10-16T23:20:05.930Z,18.03
2018-10-16T23:22:34.034Z,24.03
2018-10-16T23:25:02.254Z,24.23
2018-10-16T23:27:30.336Z,19.37
2018-10-16T23:29:58.413Z,24.63
2018-10-16T23:32:26.559Z,19.03
2018-10-16T23:34:54.665Z,20.43
2018-10-16T23:37:22.734Z,20.03
2018-10-16T23:39:51.005Z,18.57
2018-10-16T23:42:19.078Z,21.43
2018-10-16T23:44:47.152Z,22.80
2018-10-16T23:47:15.254Z,18.83
2018-10-16T23:49:43.362Z,22.63
2018-10-16T23:52:11.443Z,22.93
2018-10-16T23:54:39.554Z,22.17
2018-10-16T23:57:07.632Z,24.27
2018-10-16T23:59:35.718Z,23.10
